createdAt,value
2019-03-20T00:00:41.808Z,408.37
2019-03-20T00:01:44.025Z,408.03
2019-03-20T00:02:41.752Z,407.97
2019-03-20T00:03:41.743Z,408.14
2019-03-20T00:04:49.730Z,408.36
2019-03-20T00:05:42.745Z,408.19
2019-03-20T00:06:41.707Z,408.77
2019-03-20T00:07:41.719Z,408.91
2019-03-20T00:08:41.720Z,409.59
2019-03-20T00:09:41.680Z,408.73
2019-03-20T00:10:41.706Z,408.58
2019-03-20T00:11:41.667Z,408.08
2019-03-20T00:12:41.657Z,408.42
2019-03-20T00:13:41.628Z,408.10
2019-03-20T00:14:41.623Z,409.33
2019-03-20T00:15:41.653Z,408.70
2019-03-20T00:16:41.611Z,407.86
2019-03-20T00:17:41.599Z,408.58
2019-03-20T00:18:41.584Z,408.24
2019-03-20T00:19:41.569Z,408.01
2019-03-20T00:20:41.599Z,408.55
2019-03-20T00:21:41.556Z,408.33
2019-03-20T00:22:43.229Z,407.97
2019-03-20T00:23:41.544Z,407.90
2019-03-20T00:24:41.514Z,407.99
2019-03-20T00:25:41.537Z,407.70
2019-03-20T00:26:41.498Z,407.93
2019-03-20T00:27:41.504Z,408.24
2019-03-20T00:28:41.472Z,408.65
2019-03-20T00:29:41.468Z,408.46
2019-03-20T00:30:41.458Z,408.55
2019-03-20T00:31:41.435Z,408.70
2019-03-20T00:32:41.430Z,408.29
2019-03-20T00:33:41.413Z,407.48
2019-03-20T00:34:41.406Z,408.17
2019-03-20T00:35:41.424Z,408.36
2019-03-20T00:36:41.388Z,408.73
2019-03-20T00:37:41.373Z,408.60
2019-03-20T00:38:41.364Z,408.58
2019-03-20T00:39:41.356Z,408.60
2019-03-20T00:40:41.351Z,408.23
2019-03-20T00:41:41.347Z,408.78
2019-03-20T00:42:41.340Z,409.09
2019-03-20T00:43:41.317Z,408.68
2019-03-20T00:44:41.302Z,408.92
2019-03-20T00:45:41.284Z,408.38
2019-03-20T00:46:41.291Z,408.95
2019-03-20T00:47:41.261Z,409.22
2019-03-20T00:48:41.257Z,408.37
2019-03-20T00:49:41.249Z,408.40
2019-03-20T00:50:41.246Z,409.03
2019-03-20T00:51:41.237Z,408.58
2019-03-20T00:52:41.211Z,408.33
2019-03-20T00:53:41.217Z,408.44
2019-03-20T00:54:41.196Z,408.94
2019-03-20T00:55:41.181Z,408.50
2019-03-20T00:56:41.185Z,408.23
2019-03-20T00:57:41.163Z,408.55
2019-03-20T00:58:41.149Z,408.70
2019-03-20T00:59:41.132Z,409.12
2019-03-20T01:00:41.132Z,409.04
2019-03-20T01:01:41.134Z,408.82
2019-03-20T01:02:41.103Z,409.38
2019-03-20T01:03:41.109Z,408.87
2019-03-20T01:04:41.083Z,408.98
2019-03-20T01:05:41.062Z,408.19
2019-03-20T01:06:41.068Z,408.79
2019-03-20T01:07:41.050Z,408.35
2019-03-20T01:08:41.048Z,408.75
2019-03-20T01:09:41.017Z,409.06
2019-03-20T01:10:41.014Z,409.06
2019-03-20T01:11:41.035Z,408.82
2019-03-20T01:12:40.994Z,408.69
2019-03-20T01:13:40.987Z,408.31
2019-03-20T01:14:40.986Z,408.70
2019-03-20T01:15:40.963Z,408.21
2019-03-20T01:16:40.949Z,408.30
2019-03-20T01:17:40.962Z,408.07
2019-03-20T01:18:40.930Z,408.45
2019-03-20T01:19:40.921Z,410.85
2019-03-20T01:20:40.913Z,409.54
2019-03-20T01:21:40.905Z,407.94
2019-03-20T01:22:40.894Z,408.43
2019-03-20T01:23:40.877Z,407.90
2019-03-20T01:24:40.858Z,408.73
2019-03-20T01:25:40.859Z,407.93
2019-03-20T01:26:40.838Z,408.11
2019-03-20T01:27:40.847Z,408.48
2019-03-20T01:28:40.819Z,409.03
2019-03-20T01:29:40.812Z,407.85
2019-03-20T01:30:40.797Z,407.68
2019-03-20T01:31:40.783Z,407.82
2019-03-20T01:32:40.789Z,408.32
2019-03-20T01:33:40.767Z,407.82
2019-03-20T01:34:40.766Z,407.92
2019-03-20T01:35:40.752Z,408.31
2019-03-20T01:36:40.732Z,408.19
2019-03-20T01:37:40.731Z,407.94
2019-03-20T01:38:40.704Z,408.31
2019-03-20T01:39:40.702Z,408.98
2019-03-20T01:40:41.032Z,408.49
2019-03-20T01:41:40.723Z,408.73
2019-03-20T01:42:40.682Z,408.75
2019-03-20T01:43:40.653Z,408.63
2019-03-20T01:44:40.647Z,408.42
2019-03-20T01:45:40.634Z,409.08
2019-03-20T01:46:40.639Z,408.48
2019-03-20T01:47:40.622Z,407.98
2019-03-20T01:48:40.592Z,408.85
2019-03-20T01:49:40.583Z,409.26
2019-03-20T01:50:40.583Z,409.05
2019-03-20T01:51:40.567Z,409.30
2019-03-20T01:52:40.576Z,409.10
2019-03-20T01:53:40.560Z,407.91
2019-03-20T01:54:40.551Z,409.28
2019-03-20T01:55:40.527Z,408.73
2019-03-20T01:56:40.513Z,408.24
2019-03-20T01:57:40.505Z,409.00
2019-03-20T01:58:40.521Z,408.22
2019-03-20T01:59:40.489Z,409.05
2019-03-20T02:00:40.464Z,408.29
2019-03-20T02:01:40.459Z,407.54
2019-03-20T02:02:40.453Z,408.52
2019-03-20T02:03:40.963Z,408.11
2019-03-20T02:04:40.418Z,408.06
2019-03-20T02:05:40.420Z,407.02
2019-03-20T02:06:40.401Z,406.85
2019-03-20T02:07:40.407Z,407.94
2019-03-20T02:08:40.403Z,408.70
2019-03-20T02:09:40.388Z,407.73
2019-03-20T02:10:40.363Z,407.94
2019-03-20T02:11:40.355Z,408.53
2019-03-20T02:12:40.345Z,409.02
2019-03-20T02:13:40.364Z,408.73
2019-03-20T02:14:40.321Z,408.80
2019-03-20T02:15:40.329Z,409.04
2019-03-20T02:16:40.305Z,408.31
2019-03-20T02:17:40.297Z,408.41
2019-03-20T02:18:40.305Z,408.56
2019-03-20T02:19:40.286Z,408.52
2019-03-20T02:20:40.269Z,409.40
2019-03-20T02:21:40.253Z,409.32
2019-03-20T02:22:40.238Z,408.65
2019-03-20T02:23:40.252Z,408.57
2019-03-20T02:24:40.204Z,408.96
2019-03-20T02:25:40.212Z,409.66
2019-03-20T02:26:40.201Z,409.31
2019-03-20T02:27:40.213Z,408.43
2019-03-20T02:28:40.200Z,408.67
2019-03-20T02:29:40.155Z,408.95
2019-03-20T02:30:40.157Z,408.18
2019-03-20T02:31:40.140Z,408.17
2019-03-20T02:32:40.137Z,408.66
2019-03-20T02:33:40.165Z,408.80
2019-03-20T02:34:40.099Z,408.37
2019-03-20T02:35:51.254Z,407.97
2019-03-20T02:36:41.079Z,408.05
2019-03-20T02:37:40.077Z,408.49
2019-03-20T02:38:40.075Z,408.08
2019-03-20T02:39:40.059Z,408.51
2019-03-20T02:40:40.042Z,408.82
2019-03-20T02:41:40.024Z,408.40
2019-03-20T02:42:40.016Z,408.08
2019-03-20T02:43:40.003Z,408.98
2019-03-20T02:44:40.025Z,408.40
2019-03-20T02:45:39.980Z,408.81
2019-03-20T02:46:39.983Z,408.20
2019-03-20T02:47:39.957Z,408.51
2019-03-20T02:48:39.966Z,408.15
2019-03-20T02:49:39.960Z,408.91
2019-03-20T02:50:39.931Z,407.96
2019-03-20T02:51:39.930Z,408.20
2019-03-20T02:52:39.900Z,408.23
2019-03-20T02:53:39.892Z,408.94
2019-03-20T02:54:39.905Z,408.85
2019-03-20T02:55:39.877Z,408.30
2019-03-20T02:56:39.872Z,408.81
2019-03-20T02:57:39.847Z,409.24
2019-03-20T02:58:39.835Z,408.51
2019-03-20T02:59:39.837Z,408.84
2019-03-20T03:00:39.822Z,408.03
2019-03-20T03:01:39.815Z,409.77
2019-03-20T03:02:39.798Z,409.93
2019-03-20T03:03:39.795Z,408.68
2019-03-20T03:04:39.780Z,408.74
2019-03-20T03:05:39.757Z,409.63
2019-03-20T03:06:39.775Z,408.98
2019-03-20T03:07:39.766Z,408.72
2019-03-20T03:08:39.748Z,409.06
2019-03-20T03:09:39.734Z,409.70
2019-03-20T03:10:39.743Z,409.49
2019-03-20T03:11:39.710Z,409.35
2019-03-20T03:12:39.692Z,411.49
2019-03-20T03:13:39.691Z,409.80
2019-03-20T03:14:39.704Z,410.02
2019-03-20T03:15:39.656Z,408.68
2019-03-20T03:16:39.639Z,409.77
2019-03-20T03:17:39.625Z,408.98
2019-03-20T03:18:39.618Z,408.97
2019-03-20T03:19:40.149Z,409.34
2019-03-20T03:20:39.614Z,409.21
2019-03-20T03:21:39.584Z,409.19
2019-03-20T03:22:39.570Z,409.15
2019-03-20T03:23:39.568Z,409.59
2019-03-20T03:24:39.556Z,408.88
2019-03-20T03:25:39.565Z,409.76
2019-03-20T03:26:39.549Z,409.23
2019-03-20T03:27:39.535Z,409.22
2019-03-20T03:28:39.514Z,408.67
2019-03-20T03:29:39.486Z,409.10
2019-03-20T03:30:39.509Z,408.60
2019-03-20T03:31:39.518Z,409.09
2019-03-20T03:32:39.482Z,408.54
2019-03-20T03:33:39.510Z,408.79
2019-03-20T03:34:39.475Z,408.80
2019-03-20T03:35:39.460Z,408.37
2019-03-20T03:36:39.417Z,408.56
2019-03-20T03:37:39.434Z,409.06
2019-03-20T03:38:39.411Z,408.94
2019-03-20T03:39:39.396Z,408.57
2019-03-20T03:40:39.392Z,408.98
2019-03-20T03:41:39.361Z,408.87
2019-03-20T03:42:39.358Z,408.94
2019-03-20T03:43:39.345Z,409.62
2019-03-20T03:44:39.330Z,409.44
2019-03-20T03:45:39.355Z,409.49
2019-03-20T03:46:39.328Z,408.99
2019-03-20T03:47:39.303Z,409.87
2019-03-20T03:48:39.283Z,409.30
2019-03-20T03:49:39.283Z,409.05
2019-03-20T03:50:39.301Z,408.67
2019-03-20T03:51:39.255Z,409.18
2019-03-20T03:52:39.263Z,408.76
2019-03-20T03:53:39.247Z,408.67
2019-03-20T03:54:39.219Z,409.70
2019-03-20T03:55:39.241Z,408.00
2019-03-20T03:56:39.201Z,409.63
2019-03-20T03:57:39.193Z,408.20
2019-03-20T03:58:39.184Z,408.30
2019-03-20T03:59:39.188Z,408.50
2019-03-20T04:00:39.173Z,408.83
2019-03-20T04:01:39.155Z,408.87
2019-03-20T04:02:39.138Z,409.11
2019-03-20T04:03:39.137Z,408.86
2019-03-20T04:04:39.127Z,408.47
2019-03-20T04:05:39.099Z,408.58
2019-03-20T04:06:39.113Z,409.02
2019-03-20T04:07:39.095Z,407.92
2019-03-20T04:08:39.110Z,408.46
2019-03-20T04:09:39.061Z,408.09
2019-03-20T04:10:39.052Z,408.41
2019-03-20T04:11:39.064Z,409.44
2019-03-20T04:12:39.038Z,409.57
2019-03-20T04:13:39.027Z,409.43
2019-03-20T04:14:39.053Z,408.91
2019-03-20T04:15:39.034Z,409.40
2019-03-20T04:16:39.005Z,408.65
2019-03-20T04:17:39.002Z,408.93
2019-03-20T04:18:38.970Z,408.13
2019-03-20T04:19:38.967Z,408.45
2019-03-20T04:20:38.947Z,408.02
2019-03-20T04:21:38.952Z,408.31
2019-03-20T04:22:38.915Z,409.04
2019-03-20T04:23:38.905Z,409.00
2019-03-20T04:24:38.896Z,408.84
2019-03-20T04:25:38.895Z,407.79
2019-03-20T04:26:38.891Z,408.14
2019-03-20T04:27:38.904Z,408.95
2019-03-20T04:28:38.871Z,407.59
2019-03-20T04:29:38.850Z,408.27
2019-03-20T04:30:38.835Z,408.71
2019-03-20T04:31:38.884Z,409.13
2019-03-20T04:32:38.816Z,408.45
2019-03-20T04:33:38.805Z,408.64
2019-03-20T04:34:38.790Z,408.66
2019-03-20T04:35:38.779Z,408.79
2019-03-20T04:36:47.286Z,408.72
2019-03-20T04:37:39.775Z,408.06
2019-03-20T04:38:38.774Z,408.46
2019-03-20T04:39:38.738Z,407.94
2019-03-20T04:40:38.730Z,408.33
2019-03-20T04:41:38.729Z,407.20
2019-03-20T04:42:38.712Z,408.09
2019-03-20T04:43:38.696Z,408.29
2019-03-20T04:44:38.675Z,408.10
2019-03-20T04:45:38.690Z,408.47
2019-03-20T04:46:38.652Z,408.49
2019-03-20T04:47:38.669Z,407.84
2019-03-20T04:48:38.641Z,407.80
2019-03-20T04:49:38.625Z,407.94
2019-03-20T04:50:38.618Z,408.39
2019-03-20T04:51:38.603Z,407.96
2019-03-20T04:52:38.606Z,407.98
2019-03-20T04:53:38.596Z,408.47
2019-03-20T04:54:38.582Z,408.68
2019-03-20T04:55:38.568Z,407.97
2019-03-20T04:56:38.560Z,407.81
2019-03-20T04:57:38.559Z,407.25
2019-03-20T04:58:38.535Z,407.15
2019-03-20T04:59:38.534Z,408.07
2019-03-20T05:00:38.523Z,407.84
2019-03-20T05:01:38.503Z,407.95
2019-03-20T05:02:38.490Z,407.99
2019-03-20T05:03:38.477Z,408.03
2019-03-20T05:04:38.470Z,408.08
2019-03-20T05:05:38.458Z,407.72
2019-03-20T05:06:38.451Z,408.56
2019-03-20T05:07:38.452Z,408.32
2019-03-20T05:08:38.418Z,408.20
2019-03-20T05:09:38.422Z,409.36
2019-03-20T05:10:38.425Z,408.54
2019-03-20T05:11:38.403Z,408.71
2019-03-20T05:12:38.398Z,407.66
2019-03-20T05:13:38.369Z,408.28
2019-03-20T05:14:38.369Z,409.00
2019-03-20T05:15:38.358Z,409.17
2019-03-20T05:16:38.340Z,409.03
2019-03-20T05:17:38.363Z,408.80
2019-03-20T05:18:38.331Z,408.61
2019-03-20T05:19:38.314Z,408.82
2019-03-20T05:20:38.297Z,408.04
2019-03-20T05:21:38.276Z,408.54
2019-03-20T05:22:38.266Z,408.55
2019-03-20T05:23:38.278Z,409.01
2019-03-20T05:24:38.245Z,408.25
2019-03-20T05:25:38.249Z,409.10
2019-03-20T05:26:38.238Z,409.11
2019-03-20T05:27:38.216Z,408.98
2019-03-20T05:28:38.216Z,408.28
2019-03-20T05:29:38.214Z,408.20
2019-03-20T05:30:38.191Z,408.02
2019-03-20T05:31:38.188Z,408.24
2019-03-20T05:32:38.187Z,408.57
2019-03-20T05:33:38.193Z,408.07
2019-03-20T05:34:38.155Z,409.08
2019-03-20T05:35:38.129Z,409.60
2019-03-20T05:36:38.141Z,408.74
2019-03-20T05:37:38.110Z,408.64
2019-03-20T05:38:38.130Z,408.34
2019-03-20T05:39:38.091Z,408.37
2019-03-20T05:40:38.093Z,408.23
2019-03-20T05:41:38.061Z,407.90
2019-03-20T05:42:38.066Z,408.44
2019-03-20T05:43:38.052Z,409.93
2019-03-20T05:44:38.033Z,408.75
2019-03-20T05:45:38.023Z,409.70
2019-03-20T05:46:38.026Z,408.69
2019-03-20T05:47:37.999Z,408.67
2019-03-20T05:48:38.009Z,408.45
2019-03-20T05:49:37.982Z,409.74
2019-03-20T05:50:37.966Z,408.78
2019-03-20T05:51:37.954Z,409.45
2019-03-20T05:52:37.952Z,408.90
2019-03-20T05:53:37.964Z,409.42
2019-03-20T05:54:37.935Z,410.06
2019-03-20T05:55:37.919Z,408.88
2019-03-20T05:56:37.909Z,409.23
2019-03-20T05:57:37.898Z,409.78
2019-03-20T05:58:37.888Z,408.82
2019-03-20T05:59:37.909Z,408.67
2019-03-20T06:00:37.864Z,409.52
2019-03-20T06:01:37.846Z,410.05
2019-03-20T06:02:37.836Z,409.33
2019-03-20T06:03:37.822Z,409.39
2019-03-20T06:04:37.833Z,409.72
2019-03-20T06:05:37.816Z,409.63
2019-03-20T06:06:37.812Z,409.03
2019-03-20T06:07:37.804Z,410.14
2019-03-20T06:08:37.795Z,409.97
2019-03-20T06:09:37.789Z,410.09
2019-03-20T06:10:37.765Z,410.27
2019-03-20T06:11:37.746Z,409.75
2019-03-20T06:12:37.747Z,409.82
2019-03-20T06:13:37.768Z,410.37
2019-03-20T06:14:37.734Z,409.62
2019-03-20T06:15:37.798Z,410.71
2019-03-20T06:16:37.704Z,410.43
2019-03-20T06:17:37.700Z,411.32
2019-03-20T06:18:37.661Z,410.86
2019-03-20T06:19:37.671Z,411.11
2019-03-20T06:20:37.649Z,410.16
2019-03-20T06:21:37.633Z,411.39
2019-03-20T06:22:37.616Z,410.82
2019-03-20T06:23:37.620Z,411.06
2019-03-20T06:24:37.616Z,410.38
2019-03-20T06:25:37.605Z,411.26
2019-03-20T06:26:37.578Z,411.11
2019-03-20T06:27:37.574Z,411.19
2019-03-20T06:28:37.564Z,410.91
2019-03-20T06:29:37.578Z,410.64
2019-03-20T06:30:37.542Z,410.18
2019-03-20T06:31:37.545Z,409.99
2019-03-20T06:32:37.520Z,410.00
2019-03-20T06:33:37.511Z,410.76
2019-03-20T06:34:37.490Z,410.66
2019-03-20T06:35:37.532Z,410.30
2019-03-20T06:36:37.478Z,410.88
2019-03-20T06:37:37.552Z,410.39
2019-03-20T06:38:37.523Z,410.86
2019-03-20T06:39:37.443Z,410.71
2019-03-20T06:40:37.434Z,410.34
2019-03-20T06:41:37.413Z,410.55
2019-03-20T06:42:37.409Z,409.73
2019-03-20T06:43:37.399Z,411.55
2019-03-20T06:44:37.416Z,411.42
2019-03-20T06:45:37.383Z,410.88
2019-03-20T06:46:37.348Z,410.59
2019-03-20T06:47:37.356Z,411.27
2019-03-20T06:48:37.348Z,411.41
2019-03-20T06:49:37.328Z,410.95
2019-03-20T06:50:37.329Z,410.83
2019-03-20T06:51:37.319Z,410.96
2019-03-20T06:52:37.313Z,411.67
2019-03-20T06:53:37.294Z,411.54
2019-03-20T06:54:37.284Z,411.90
2019-03-20T06:55:37.291Z,410.77
2019-03-20T06:56:37.257Z,410.43
2019-03-20T06:57:37.240Z,411.40
2019-03-20T06:58:37.232Z,411.46
2019-03-20T06:59:37.217Z,409.95
2019-03-20T07:00:37.256Z,410.29
2019-03-20T07:01:37.193Z,410.36
2019-03-20T07:02:37.192Z,410.92
2019-03-20T07:03:37.199Z,410.48
2019-03-20T07:04:37.162Z,410.97
2019-03-20T07:05:37.175Z,411.06
2019-03-20T07:06:37.142Z,410.40
2019-03-20T07:07:44.215Z,411.05
2019-03-20T07:08:38.114Z,410.98
2019-03-20T07:09:37.109Z,411.09
2019-03-20T07:10:37.109Z,411.06
2019-03-20T07:11:37.082Z,411.01
2019-03-20T07:12:37.070Z,411.20
2019-03-20T07:13:37.083Z,411.42
2019-03-20T07:14:37.046Z,410.37
2019-03-20T07:15:37.068Z,410.45
2019-03-20T07:16:37.021Z,411.12
2019-03-20T07:17:37.012Z,410.43
2019-03-20T07:18:37.039Z,411.31
2019-03-20T07:19:37.005Z,411.76
2019-03-20T07:20:36.983Z,411.54
2019-03-20T07:21:36.988Z,411.28
2019-03-20T07:22:36.968Z,411.83
2019-03-20T07:23:36.944Z,410.81
2019-03-20T07:24:36.941Z,410.10
2019-03-20T07:25:36.943Z,411.16
2019-03-20T07:26:36.966Z,411.11
2019-03-20T07:27:36.912Z,411.24
2019-03-20T07:28:36.903Z,411.43
2019-03-20T07:29:36.910Z,411.68
2019-03-20T07:30:36.873Z,410.91
2019-03-20T07:31:36.872Z,410.96
2019-03-20T07:32:36.858Z,411.07
2019-03-20T07:33:36.853Z,411.38
2019-03-20T07:34:36.835Z,410.46
2019-03-20T07:35:36.823Z,411.63
2019-03-20T07:36:36.820Z,410.10
2019-03-20T07:37:36.801Z,411.47
2019-03-20T07:38:36.783Z,411.52
2019-03-20T07:39:36.805Z,411.27
2019-03-20T07:40:36.769Z,411.25
2019-03-20T07:41:36.779Z,410.98
2019-03-20T07:42:36.735Z,411.45
2019-03-20T07:43:36.736Z,411.10
2019-03-20T07:44:36.725Z,412.00
2019-03-20T07:45:36.698Z,411.25
2019-03-20T07:46:36.735Z,411.07
2019-03-20T07:47:36.695Z,410.67
2019-03-20T07:48:36.667Z,410.96
2019-03-20T07:49:36.681Z,411.91
2019-03-20T07:50:36.652Z,411.78
2019-03-20T07:51:36.652Z,411.07
2019-03-20T07:52:36.627Z,410.72
2019-03-20T07:53:36.633Z,411.46
2019-03-20T07:54:36.600Z,410.89
2019-03-20T07:55:36.600Z,411.91
2019-03-20T07:56:36.599Z,411.56
2019-03-20T07:57:36.571Z,412.77
2019-03-20T07:58:36.588Z,411.13
2019-03-20T07:59:36.570Z,412.10
2019-03-20T08:00:36.546Z,411.46
2019-03-20T08:01:36.550Z,412.33
2019-03-20T08:02:36.518Z,411.44
2019-03-20T08:03:36.508Z,411.72
2019-03-20T08:04:36.505Z,410.86
2019-03-20T08:05:36.488Z,412.11
2019-03-20T08:06:36.499Z,411.44
2019-03-20T08:07:36.483Z,411.79
2019-03-20T08:08:36.457Z,411.70
2019-03-20T08:09:36.490Z,411.38
2019-03-20T08:10:36.434Z,410.32
2019-03-20T08:11:36.436Z,411.06
2019-03-20T08:12:36.426Z,411.14
2019-03-20T08:13:36.410Z,412.28
2019-03-20T08:14:36.396Z,411.21
2019-03-20T08:15:36.376Z,412.27
2019-03-20T08:16:36.357Z,410.54
2019-03-20T08:17:36.367Z,412.27
2019-03-20T08:18:36.335Z,411.52
2019-03-20T08:19:36.347Z,412.15
2019-03-20T08:20:36.320Z,411.48
2019-03-20T08:21:36.303Z,411.92
2019-03-20T08:22:36.308Z,411.34
2019-03-20T08:23:36.296Z,412.56
2019-03-20T08:24:36.299Z,411.06
2019-03-20T08:25:36.275Z,411.79
2019-03-20T08:26:36.253Z,411.76
2019-03-20T08:27:36.259Z,410.82
2019-03-20T08:28:36.232Z,410.68
2019-03-20T08:29:36.249Z,412.19
2019-03-20T08:30:36.210Z,411.80
2019-03-20T08:31:36.215Z,410.97
2019-03-20T08:32:36.198Z,411.72
2019-03-20T08:33:36.180Z,411.68
2019-03-20T08:34:36.172Z,411.42
2019-03-20T08:35:36.149Z,412.80
2019-03-20T08:36:36.165Z,411.81
2019-03-20T08:37:36.157Z,411.58
2019-03-20T08:38:36.133Z,411.51
2019-03-20T08:39:36.109Z,411.86
2019-03-20T08:40:36.099Z,410.75
2019-03-20T08:41:36.086Z,412.13
2019-03-20T08:42:36.090Z,412.17
2019-03-20T08:43:36.073Z,412.16
2019-03-20T08:44:36.064Z,412.52
2019-03-20T08:45:36.101Z,412.38
2019-03-20T08:46:36.025Z,412.16
2019-03-20T08:47:36.044Z,411.62
2019-03-20T08:48:36.004Z,412.62
2019-03-20T08:49:35.988Z,411.45
2019-03-20T08:50:35.981Z,410.90
2019-03-20T08:51:35.978Z,411.65
2019-03-20T08:52:35.990Z,411.41
2019-03-20T08:53:35.954Z,413.04
2019-03-20T08:54:35.948Z,411.20
2019-03-20T08:55:35.934Z,411.68
2019-03-20T08:56:36.018Z,411.24
2019-03-20T08:57:35.920Z,411.16
2019-03-20T08:58:35.894Z,411.83
2019-03-20T08:59:35.898Z,412.08
2019-03-20T09:00:35.870Z,410.95
2019-03-20T09:01:35.857Z,411.44
2019-03-20T09:02:35.876Z,412.50
2019-03-20T09:03:35.850Z,412.18
2019-03-20T09:04:35.906Z,411.38
2019-03-20T09:05:35.818Z,412.44
2019-03-20T09:06:35.822Z,412.43
2019-03-20T09:07:46.700Z,413.34
2019-03-20T09:08:36.826Z,412.88
2019-03-20T09:09:35.782Z,412.03
2019-03-20T09:10:35.772Z,412.24
2019-03-20T09:11:35.763Z,413.14
2019-03-20T09:12:35.775Z,412.99
2019-03-20T09:13:35.733Z,412.52
2019-03-20T09:14:35.730Z,411.16
2019-03-20T09:15:35.728Z,412.98
2019-03-20T09:16:35.696Z,411.97
2019-03-20T09:17:35.684Z,412.27
2019-03-20T09:18:35.687Z,411.95
2019-03-20T09:19:35.685Z,412.68
2019-03-20T09:20:35.655Z,412.15
2019-03-20T09:21:35.645Z,412.95
2019-03-20T09:22:35.628Z,412.52
2019-03-20T09:23:35.639Z,413.69
2019-03-20T09:24:35.618Z,412.03
2019-03-20T09:25:35.592Z,412.12
2019-03-20T09:26:35.602Z,412.89
2019-03-20T09:27:35.571Z,412.62
2019-03-20T09:28:35.593Z,413.98
2019-03-20T09:29:36.444Z,413.40
2019-03-20T09:30:35.555Z,412.23
2019-03-20T09:31:35.534Z,412.34
2019-03-20T09:32:35.550Z,413.89
2019-03-20T09:33:35.555Z,412.71
2019-03-20T09:34:35.517Z,411.94
2019-03-20T09:35:35.499Z,414.58
2019-03-20T09:36:43.178Z,413.07
2019-03-20T09:37:36.459Z,413.78
2019-03-20T09:38:43.320Z,413.22
2019-03-20T09:39:36.444Z,411.59
2019-03-20T09:40:35.438Z,412.83
2019-03-20T09:41:35.440Z,412.39
2019-03-20T09:42:35.428Z,413.16
2019-03-20T09:43:35.425Z,412.28
2019-03-20T09:44:35.409Z,413.11
2019-03-20T09:45:35.370Z,413.56
2019-03-20T09:46:35.361Z,411.72
2019-03-20T09:47:35.350Z,411.98
2019-03-20T09:48:35.368Z,414.04
2019-03-20T09:49:35.344Z,412.47
2019-03-20T09:50:35.328Z,412.50
2019-03-20T09:51:35.313Z,412.98
2019-03-20T09:52:36.214Z,411.76
2019-03-20T09:53:35.311Z,413.31
2019-03-20T09:54:35.353Z,412.76
2019-03-20T09:55:35.289Z,414.26
2019-03-20T09:56:35.284Z,413.87
2019-03-20T09:57:35.243Z,412.26
2019-03-20T09:58:35.244Z,412.47
2019-03-20T09:59:35.247Z,412.81
2019-03-20T10:00:35.233Z,411.92
2019-03-20T10:01:35.214Z,412.49
2019-03-20T10:02:35.194Z,412.63
2019-03-20T10:03:35.186Z,416.33
2019-03-20T10:04:35.175Z,414.98
2019-03-20T10:05:35.154Z,413.22
2019-03-20T10:06:35.146Z,413.69
2019-03-20T10:07:35.143Z,413.88
2019-03-20T10:08:35.145Z,412.31
2019-03-20T10:09:35.112Z,412.06
2019-03-20T10:10:35.097Z,412.51
2019-03-20T10:11:35.108Z,413.99
2019-03-20T10:12:35.083Z,413.63
2019-03-20T10:13:35.074Z,413.14
2019-03-20T10:14:35.062Z,413.46
2019-03-20T10:15:35.053Z,412.95
2019-03-20T10:16:35.049Z,412.31
2019-03-20T10:17:35.027Z,415.08
2019-03-20T10:18:35.021Z,412.87
2019-03-20T10:19:35.020Z,413.33
2019-03-20T10:20:34.998Z,413.20
2019-03-20T10:21:35.007Z,413.02
2019-03-20T10:22:34.976Z,413.11
2019-03-20T10:23:34.975Z,414.33
2019-03-20T10:24:34.944Z,413.72
2019-03-20T10:25:44.180Z,413.23
2019-03-20T10:26:35.918Z,413.12
2019-03-20T10:27:34.914Z,414.10
2019-03-20T10:28:34.912Z,413.08
2019-03-20T10:29:34.888Z,413.95
2019-03-20T10:30:34.884Z,415.76
2019-03-20T10:31:34.870Z,413.64
2019-03-20T10:32:34.868Z,413.02
2019-03-20T10:33:34.899Z,413.75
2019-03-20T10:34:39.421Z,413.06
2019-03-20T10:35:35.819Z,413.24
2019-03-20T10:36:34.832Z,413.27
2019-03-20T10:37:34.826Z,412.37
2019-03-20T10:38:34.819Z,413.72
2019-03-20T10:39:34.818Z,412.87
2019-03-20T10:40:34.770Z,412.18
2019-03-20T10:41:34.759Z,413.44
2019-03-20T10:42:34.770Z,414.66
2019-03-20T10:43:34.754Z,413.97
2019-03-20T10:44:34.739Z,413.03
2019-03-20T10:45:34.721Z,414.10
2019-03-20T10:46:34.706Z,414.45
2019-03-20T10:47:34.703Z,412.37
2019-03-20T10:48:34.729Z,415.61
2019-03-20T10:49:34.721Z,414.74
2019-03-20T10:50:34.683Z,414.11
2019-03-20T10:51:34.661Z,414.43
2019-03-20T10:52:34.633Z,411.72
2019-03-20T10:53:34.657Z,412.73
2019-03-20T10:54:34.619Z,412.87
2019-03-20T10:55:34.603Z,413.72
2019-03-20T10:56:34.584Z,413.75
2019-03-20T10:57:34.597Z,412.87
2019-03-20T10:58:34.577Z,412.83
2019-03-20T10:59:34.554Z,413.06
2019-03-20T11:00:34.542Z,414.64
2019-03-20T11:01:42.622Z,414.03
2019-03-20T11:02:35.522Z,413.13
2019-03-20T11:03:34.523Z,414.32
2019-03-20T11:04:34.548Z,412.21
2019-03-20T11:05:34.495Z,414.39
2019-03-20T11:06:34.490Z,414.84
2019-03-20T11:07:34.462Z,415.41
2019-03-20T11:08:34.487Z,414.35
2019-03-20T11:09:34.478Z,414.56
2019-03-20T11:10:34.445Z,413.67
2019-03-20T11:11:34.423Z,414.17
2019-03-20T11:12:34.414Z,412.94
2019-03-20T11:13:34.418Z,413.80
2019-03-20T11:14:34.391Z,413.80
2019-03-20T11:15:34.421Z,414.68
2019-03-20T11:16:34.392Z,416.13
2019-03-20T11:17:34.350Z,414.31
2019-03-20T11:18:34.361Z,412.58
2019-03-20T11:19:34.351Z,414.43
2019-03-20T11:20:34.319Z,413.12
2019-03-20T11:21:34.316Z,415.83
2019-03-20T11:22:34.290Z,415.47
2019-03-20T11:23:34.316Z,414.27
2019-03-20T11:24:34.286Z,414.25
2019-03-20T11:25:34.275Z,414.89
2019-03-20T11:26:34.315Z,415.90
2019-03-20T11:27:34.262Z,413.79
2019-03-20T11:28:34.257Z,414.38
2019-03-20T11:29:34.236Z,413.33
2019-03-20T11:30:34.242Z,413.99
2019-03-20T11:31:34.203Z,413.65
2019-03-20T11:32:34.201Z,414.33
2019-03-20T11:33:34.210Z,413.54
2019-03-20T11:34:34.210Z,414.09
2019-03-20T11:35:34.164Z,414.45
2019-03-20T11:36:34.188Z,413.18
2019-03-20T11:37:34.139Z,413.89
2019-03-20T11:38:34.151Z,414.75
2019-03-20T11:39:34.173Z,416.90
2019-03-20T11:40:34.097Z,413.66
2019-03-20T11:41:34.081Z,413.33
2019-03-20T11:42:34.073Z,414.63
2019-03-20T11:43:34.196Z,414.29
2019-03-20T11:44:34.099Z,412.87
2019-03-20T11:45:34.046Z,414.42
2019-03-20T11:46:34.029Z,412.11
2019-03-20T11:47:34.030Z,413.32
2019-03-20T11:48:34.022Z,414.14
2019-03-20T11:49:34.034Z,413.13
2019-03-20T11:50:33.988Z,413.88
2019-03-20T11:51:33.975Z,413.34
2019-03-20T11:52:33.963Z,415.97
2019-03-20T11:53:33.968Z,414.04
2019-03-20T11:54:33.973Z,413.65
2019-03-20T11:55:33.950Z,413.76
2019-03-20T11:56:33.922Z,414.94
2019-03-20T11:57:33.914Z,413.83
2019-03-20T11:58:33.900Z,414.78
2019-03-20T11:59:33.918Z,414.06
2019-03-20T12:00:33.889Z,413.95
2019-03-20T12:01:33.891Z,414.64
2019-03-20T12:02:33.852Z,413.05
2019-03-20T12:03:33.843Z,412.66
2019-03-20T12:04:33.853Z,414.75
2019-03-20T12:05:33.826Z,413.85
2019-03-20T12:06:33.815Z,413.73
2019-03-20T12:07:33.791Z,413.59
2019-03-20T12:08:33.836Z,414.37
2019-03-20T12:09:41.100Z,412.38
2019-03-20T12:10:34.764Z,410.70
2019-03-20T12:11:45.182Z,413.65
2019-03-20T12:12:34.747Z,414.00
2019-03-20T12:13:33.726Z,411.60
2019-03-20T12:14:33.747Z,413.10
2019-03-20T12:15:33.758Z,413.49
2019-03-20T12:16:33.712Z,414.70
2019-03-20T12:17:33.699Z,413.00
2019-03-20T12:18:33.683Z,411.89
2019-03-20T12:19:44.490Z,411.59
2019-03-20T12:20:34.655Z,412.30
2019-03-20T12:21:33.653Z,414.37
2019-03-20T12:22:33.640Z,413.17
2019-03-20T12:23:33.895Z,413.61
2019-03-20T12:24:33.633Z,414.02
2019-03-20T12:25:33.599Z,414.20
2019-03-20T12:26:33.583Z,413.07
2019-03-20T12:27:33.581Z,414.50
2019-03-20T12:28:33.567Z,412.95